createdAt,value
2019-04-29T00:00:42.691Z,11.00
2019-04-29T00:03:12.462Z,10.96
2019-04-29T00:05:41.929Z,10.98
2019-04-29T00:08:11.286Z,10.96
2019-04-29T00:10:40.724Z,10.90
2019-04-29T00:13:10.150Z,10.98
2019-04-29T00:16:04.466Z,10.94
2019-04-29T00:18:51.557Z,10.92
2019-04-29T00:21:21.576Z,10.94
2019-04-29T00:24:03.307Z,10.91
2019-04-29T00:26:22.100Z,10.79
2019-04-29T00:28:51.435Z,10.81
2019-04-29T00:31:20.983Z,10.77
2019-04-29T00:33:50.347Z,10.75
2019-04-29T00:36:21.322Z,10.74
2019-04-29T00:39:21.709Z,10.68
2019-04-29T00:42:08.914Z,10.71
2019-04-29T00:44:38.328Z,10.74
2019-04-29T00:47:07.700Z,10.61
2019-04-29T00:49:37.083Z,10.68
2019-04-29T00:52:06.423Z,10.65
2019-04-29T00:54:40.924Z,10.67
2019-04-29T00:57:10.289Z,10.57
2019-04-29T00:59:39.671Z,10.57
2019-04-29T01:02:09.544Z,10.57
2019-04-29T01:04:38.932Z,10.48
2019-04-29T01:07:08.390Z,10.56
2019-04-29T01:09:37.733Z,10.55
2019-04-29T01:12:07.710Z,10.65
2019-04-29T01:14:37.083Z,10.70
2019-04-29T01:17:06.427Z,10.77
2019-04-29T01:19:35.782Z,10.83
2019-04-29T01:22:05.229Z,10.89
2019-04-29T01:24:34.670Z,10.93
2019-04-29T01:27:20.662Z,10.91
2019-04-29T01:29:50.041Z,10.93
2019-04-29T01:32:19.363Z,10.93
2019-04-29T01:34:53.635Z,11.00
2019-04-29T01:37:35.914Z,11.02
2019-04-29T01:40:18.043Z,10.99
2019-04-29T01:42:47.411Z,10.96
2019-04-29T01:45:16.812Z,10.94
2019-04-29T01:47:46.168Z,10.90
2019-04-29T01:50:15.558Z,10.88
2019-04-29T01:52:44.909Z,10.84
2019-04-29T01:55:14.553Z,10.86
2019-04-29T01:57:43.920Z,10.89
2019-04-29T02:00:14.353Z,10.88
2019-04-29T02:02:43.747Z,10.83
2019-04-29T02:05:13.098Z,10.72
2019-04-29T02:07:42.449Z,10.91
2019-04-29T02:10:27.101Z,10.87
2019-04-29T02:12:56.487Z,10.77
2019-04-29T02:15:25.849Z,10.77
2019-04-29T02:17:55.187Z,10.79
2019-04-29T02:20:24.549Z,10.88
2019-04-29T02:23:14.518Z,10.92
2019-04-29T02:25:45.106Z,10.87
2019-04-29T02:28:14.474Z,10.92
2019-04-29T02:30:47.757Z,11.00
2019-04-29T02:33:17.100Z,11.01
2019-04-29T02:35:46.478Z,11.01
2019-04-29T02:38:32.190Z,10.95
2019-04-29T02:41:20.555Z,11.04
2019-04-29T02:43:51.686Z,10.92
2019-04-29T02:46:21.055Z,10.95
2019-04-29T02:48:50.398Z,10.82
2019-04-29T02:51:37.274Z,10.83
2019-04-29T02:54:06.697Z,10.85
2019-04-29T02:56:36.223Z,10.85
2019-04-29T02:59:06.548Z,10.70
2019-04-29T03:01:55.648Z,10.78
2019-04-29T03:04:27.140Z,10.77
2019-04-29T03:06:56.478Z,10.76
2019-04-29T03:09:25.840Z,10.56
2019-04-29T03:11:55.205Z,10.68
2019-04-29T03:14:24.574Z,10.63
2019-04-29T03:16:54.352Z,10.49
2019-04-29T03:19:28.863Z,10.56
2019-04-29T03:21:59.731Z,10.55
2019-04-29T03:24:29.068Z,10.55
2019-04-29T03:26:58.477Z,10.51
2019-04-29T03:29:27.833Z,10.44
2019-04-29T03:31:58.537Z,10.40
2019-04-29T03:34:27.873Z,10.34
2019-04-29T03:36:57.238Z,10.31
2019-04-29T03:39:26.600Z,10.35
2019-04-29T03:41:55.921Z,10.33
2019-04-29T03:44:25.348Z,10.37
2019-04-29T03:46:54.698Z,10.46
2019-04-29T03:49:24.077Z,10.39
2019-04-29T03:51:53.471Z,10.42
2019-04-29T03:54:22.808Z,10.51
2019-04-29T03:56:52.205Z,10.42
2019-04-29T03:59:21.519Z,10.40
2019-04-29T04:02:03.131Z,10.46
2019-04-29T04:04:50.019Z,10.37
2019-04-29T04:07:36.845Z,10.45
2019-04-29T04:10:06.627Z,10.38
2019-04-29T04:12:35.991Z,10.42
2019-04-29T04:15:05.813Z,10.42
2019-04-29T04:17:40.930Z,10.50
2019-04-29T04:20:10.398Z,10.49
2019-04-29T04:22:49.083Z,10.48
2019-04-29T04:25:18.603Z,10.55
2019-04-29T04:27:48.082Z,10.67
2019-04-29T04:30:18.880Z,10.75
2019-04-29T04:32:48.252Z,10.83
2019-04-29T04:35:17.605Z,10.89
2019-04-29T04:37:47.013Z,10.88
2019-04-29T04:40:20.524Z,10.98
2019-04-29T04:42:49.944Z,11.01
2019-04-29T04:45:19.349Z,11.02
2019-04-29T04:47:48.790Z,11.02
2019-04-29T04:50:18.259Z,10.99
2019-04-29T04:52:47.595Z,11.08
2019-04-29T04:55:17.677Z,11.03
2019-04-29T04:57:47.079Z,11.08
2019-04-29T05:00:23.080Z,11.18
2019-04-29T05:02:52.645Z,11.29
2019-04-29T05:05:22.015Z,11.35
2019-04-29T05:07:51.360Z,11.36
2019-04-29T05:10:20.766Z,11.43
2019-04-29T05:12:50.149Z,11.43
2019-04-29T05:15:19.498Z,11.53
2019-04-29T05:17:48.854Z,11.39
2019-04-29T05:20:18.245Z,11.37
2019-04-29T05:23:00.092Z,11.49
2019-04-29T05:25:31.050Z,11.47
2019-04-29T05:28:00.839Z,11.63
2019-04-29T05:30:30.361Z,11.73
2019-04-29T05:32:59.788Z,11.85
2019-04-29T05:35:40.236Z,11.93
2019-04-29T05:38:22.933Z,11.96
2019-04-29T05:40:52.772Z,12.04
2019-04-29T05:43:32.116Z,12.14
2019-04-29T05:46:08.721Z,12.12
2019-04-29T05:48:38.070Z,12.13
2019-04-29T05:51:27.258Z,12.19
2019-04-29T05:53:58.846Z,12.08
2019-04-29T05:56:28.243Z,12.20
2019-04-29T05:58:57.623Z,12.26
2019-04-29T06:01:28.573Z,12.23
2019-04-29T06:03:57.940Z,12.24
2019-04-29T06:06:27.500Z,12.36
2019-04-29T06:08:56.860Z,12.36
2019-04-29T06:11:26.330Z,12.47
2019-04-29T06:13:55.724Z,12.50
2019-04-29T06:16:25.087Z,12.64
2019-04-29T06:18:59.699Z,12.59
2019-04-29T06:21:25.578Z,12.65
2019-04-29T06:23:59.197Z,12.83
2019-04-29T06:26:26.009Z,12.84
2019-04-29T06:28:55.418Z,12.91
2019-04-29T06:31:24.815Z,13.09
2019-04-29T06:33:54.207Z,13.12
2019-04-29T06:36:23.573Z,13.22
2019-04-29T06:38:52.958Z,13.20
2019-04-29T06:41:22.330Z,13.04
2019-04-29T06:43:54.206Z,13.20
2019-04-29T06:46:22.800Z,13.20
2019-04-29T06:48:52.186Z,13.24
2019-04-29T06:51:21.572Z,13.51
2019-04-29T06:53:50.869Z,13.51
2019-04-29T06:56:20.218Z,13.84
2019-04-29T06:58:49.560Z,13.84
2019-04-29T07:01:18.934Z,14.28
2019-04-29T07:03:48.272Z,14.28
2019-04-29T07:06:17.657Z,14.33
2019-04-29T07:08:47.025Z,14.46
2019-04-29T07:11:16.413Z,14.66
2019-04-29T07:13:46.684Z,14.66
2019-04-29T07:16:17.114Z,14.88
2019-04-29T07:18:51.281Z,14.88
2019-04-29T07:21:17.787Z,15.02
2019-04-29T07:23:47.195Z,15.07
2019-04-29T07:26:16.623Z,15.08
2019-04-29T07:28:48.756Z,15.27
2019-04-29T07:31:17.073Z,15.39
2019-04-29T07:33:46.427Z,15.51
2019-04-29T07:36:18.627Z,15.59
2019-04-29T07:38:51.728Z,15.76
2019-04-29T07:41:18.946Z,15.89
2019-04-29T07:43:49.078Z,16.03
2019-04-29T07:46:27.293Z,16.07
2019-04-29T07:49:01.671Z,16.22
2019-04-29T07:51:27.731Z,16.44
2019-04-29T07:53:57.144Z,16.32
2019-04-29T07:56:26.516Z,16.29
2019-04-29T07:58:58.974Z,16.06
2019-04-29T08:01:27.110Z,16.10
2019-04-29T08:03:56.546Z,16.22
2019-04-29T08:06:26.080Z,16.37
2019-04-29T08:08:58.805Z,16.69
2019-04-29T08:11:26.785Z,16.79
2019-04-29T08:13:57.967Z,16.83
2019-04-29T08:16:27.341Z,16.71
2019-04-29T08:18:56.720Z,16.80
2019-04-29T08:21:26.122Z,16.76
2019-04-29T08:23:55.586Z,16.89
2019-04-29T08:26:24.938Z,16.96
2019-04-29T08:29:00.313Z,17.08
2019-04-29T08:31:25.571Z,17.19
2019-04-29T08:33:54.921Z,17.34
2019-04-29T08:36:24.320Z,17.39
2019-04-29T08:38:53.692Z,17.23
2019-04-29T08:41:28.556Z,17.22
2019-04-29T08:44:16.146Z,17.41
2019-04-29T08:46:52.040Z,17.63
2019-04-29T08:49:22.254Z,17.50
2019-04-29T08:51:51.754Z,17.67
2019-04-29T08:54:21.432Z,17.93
2019-04-29T08:57:02.305Z,17.99
2019-04-29T08:59:24.418Z,18.11
2019-04-29T09:01:53.008Z,18.08
2019-04-29T09:04:22.450Z,18.09
2019-04-29T09:06:51.886Z,18.32
2019-04-29T09:09:29.089Z,18.36
2019-04-29T09:11:52.569Z,18.41
2019-04-29T09:14:21.971Z,18.69
2019-04-29T09:16:51.317Z,18.74
2019-04-29T09:19:20.772Z,18.74
2019-04-29T09:21:56.271Z,18.54
2019-04-29T09:24:25.655Z,18.39
2019-04-29T09:27:04.986Z,18.30
2019-04-29T09:29:35.102Z,18.44
2019-04-29T09:32:05.746Z,18.52
2019-04-29T09:34:35.264Z,18.76
2019-04-29T09:37:04.943Z,19.07
2019-04-29T09:39:43.537Z,19.27
2019-04-29T09:42:26.092Z,19.40
2019-04-29T09:45:14.700Z,19.66
2019-04-29T09:47:43.389Z,19.65
2019-04-29T09:50:13.260Z,19.47
2019-04-29T09:52:42.655Z,19.38
2019-04-29T09:55:12.148Z,19.53
2019-04-29T09:57:41.546Z,19.75
2019-04-29T10:00:19.381Z,20.02
2019-04-29T10:02:54.107Z,19.95
2019-04-29T10:05:36.552Z,19.47
2019-04-29T10:08:05.981Z,19.30
2019-04-29T10:10:37.219Z,19.37
2019-04-29T10:13:06.560Z,19.14
2019-04-29T10:16:13.021Z,19.10
2019-04-29T10:18:47.713Z,19.33
2019-04-29T10:21:25.740Z,19.42
2019-04-29T10:23:55.113Z,19.30
2019-04-29T10:26:24.454Z,19.32
2019-04-29T10:29:07.675Z,19.38
2019-04-29T10:31:37.485Z,19.64
2019-04-29T10:34:07.681Z,19.88
2019-04-29T10:36:37.018Z,20.38
2019-04-29T10:39:35.510Z,20.38
2019-04-29T10:42:05.593Z,20.53
2019-04-29T10:44:43.545Z,20.70
2019-04-29T10:47:35.978Z,20.87
2019-04-29T10:50:19.430Z,20.94
2019-04-29T10:52:48.925Z,21.50
2019-04-29T10:55:20.419Z,22.55
2019-04-29T10:57:51.373Z,23.43
2019-04-29T11:00:39.652Z,23.93
2019-04-29T11:03:09.012Z,24.07
2019-04-29T11:05:59.992Z,24.35
2019-04-29T11:08:43.134Z,24.80
2019-04-29T11:11:22.705Z,25.38
2019-04-29T11:13:48.120Z,25.66
2019-04-29T11:16:15.266Z,25.53
2019-04-29T11:18:44.639Z,24.16
2019-04-29T11:21:13.973Z,23.34
2019-04-29T11:24:02.253Z,23.28
2019-04-29T11:26:48.496Z,23.48
2019-04-29T11:29:22.244Z,24.26
2019-04-29T11:31:54.003Z,25.28
2019-04-29T11:34:33.217Z,25.65
2019-04-29T11:37:02.141Z,25.42
2019-04-29T11:39:31.532Z,24.93
2019-04-29T11:42:01.637Z,25.69
2019-04-29T11:44:31.962Z,25.61
2019-04-29T11:47:01.354Z,25.55
2019-04-29T11:49:42.596Z,25.71
2019-04-29T11:52:11.935Z,26.06
2019-04-29T11:54:41.302Z,26.18
2019-04-29T11:57:17.041Z,24.99
2019-04-29T12:00:05.095Z,25.16
2019-04-29T12:02:47.521Z,25.23
2019-04-29T12:05:35.966Z,24.49
2019-04-29T12:08:11.811Z,24.06
2019-04-29T12:10:38.292Z,23.41
2019-04-29T12:13:11.931Z,23.46
2019-04-29T12:16:03.308Z,24.40
2019-04-29T12:18:38.091Z,24.41
2019-04-29T12:21:18.433Z,24.62
2019-04-29T12:23:51.814Z,25.00
2019-04-29T12:26:19.117Z,25.06
2019-04-29T12:28:48.453Z,24.86
2019-04-29T12:31:23.603Z,25.03
2019-04-29T12:33:59.172Z,24.84
2019-04-29T12:36:28.554Z,24.76
2019-04-29T12:39:15.635Z,24.14
2019-04-29T12:42:20.042Z,23.91
2019-04-29T12:44:52.642Z,24.85
2019-04-29T12:47:32.495Z,25.22
2019-04-29T12:50:01.851Z,25.17
2019-04-29T12:52:31.232Z,24.49
2019-04-29T12:55:13.000Z,24.37
2019-04-29T12:57:31.677Z,24.64
2019-04-29T13:00:01.050Z,24.58
2019-04-29T13:02:48.301Z,24.27
2019-04-29T13:05:39.001Z,23.91
2019-04-29T13:08:16.950Z,23.45
2019-04-29T13:10:51.605Z,23.42
2019-04-29T13:13:22.037Z,22.98
2019-04-29T13:16:20.238Z,23.06
2019-04-29T13:19:11.397Z,22.93
2019-04-29T13:21:33.632Z,22.36
2019-04-29T13:24:13.441Z,22.62
2019-04-29T13:26:37.256Z,22.58
2019-04-29T13:29:05.515Z,23.00
2019-04-29T13:31:38.461Z,23.31
2019-04-29T13:34:22.759Z,23.46
2019-04-29T13:36:38.756Z,23.27
2019-04-29T13:39:09.900Z,23.23
2019-04-29T13:41:56.401Z,23.13
2019-04-29T13:44:10.416Z,23.10
2019-04-29T13:46:57.879Z,22.97
2019-04-29T13:49:35.430Z,22.86
2019-04-29T13:52:05.138Z,22.71
2019-04-29T13:54:37.337Z,22.69
2019-04-29T13:57:09.395Z,22.71
2019-04-29T13:59:55.998Z,22.83
2019-04-29T14:02:33.429Z,22.76
2019-04-29T14:05:02.711Z,22.97
2019-04-29T14:07:32.071Z,23.05
2019-04-29T14:10:01.509Z,23.14
2019-04-29T14:15:02.506Z,23.55
2019-04-29T14:17:35.673Z,23.51
2019-04-29T14:20:03.068Z,23.46
2019-04-29T14:22:32.598Z,23.26
2019-04-29T14:25:01.964Z,23.56
2019-04-29T14:27:31.327Z,23.58
2019-04-29T14:30:02.976Z,23.40
2019-04-29T14:32:35.889Z,23.02
2019-04-29T14:35:11.864Z,23.05
2019-04-29T14:37:55.029Z,22.72
2019-04-29T14:40:13.022Z,22.62
2019-04-29T14:43:03.059Z,22.78
2019-04-29T14:45:53.243Z,22.71
2019-04-29T14:49:04.511Z,22.55
2019-04-29T14:51:36.648Z,22.79
2019-04-29T14:54:05.584Z,23.55
2019-04-29T14:56:33.422Z,24.67
2019-04-29T14:59:06.953Z,25.66
2019-04-29T15:01:55.575Z,26.37
2019-04-29T15:04:27.917Z,26.99
2019-04-29T15:06:57.284Z,27.10
2019-04-29T15:09:26.710Z,27.30
2019-04-29T15:12:08.569Z,27.07
2019-04-29T15:14:47.400Z,26.90
2019-04-29T15:17:44.824Z,27.16
2019-04-29T15:20:40.002Z,27.08
2019-04-29T15:23:09.386Z,27.19
2019-04-29T15:25:38.773Z,26.71
2019-04-29T15:28:08.155Z,26.60
2019-04-29T15:30:38.678Z,26.43
2019-04-29T15:33:08.183Z,26.35
2019-04-29T15:35:37.597Z,26.16
2019-04-29T15:38:06.988Z,25.61
2019-04-29T15:40:42.705Z,25.41
2019-04-29T15:43:07.437Z,25.39
2019-04-29T15:45:36.816Z,25.11
2019-04-29T15:48:06.181Z,24.47
2019-04-29T15:50:37.155Z,24.42
2019-04-29T15:53:06.630Z,23.60
2019-04-29T15:55:39.494Z,22.98
2019-04-29T15:58:07.321Z,23.29
2019-04-29T16:00:40.082Z,23.96
2019-04-29T16:03:08.002Z,23.96
2019-04-29T16:06:19.745Z,24.01
2019-04-29T16:08:51.184Z,24.51
2019-04-29T16:11:34.779Z,24.64
2019-04-29T16:14:09.511Z,24.31
2019-04-29T16:16:36.577Z,24.29
2019-04-29T16:19:08.130Z,24.43
2019-04-29T16:21:39.202Z,24.46
2019-04-29T16:24:24.979Z,24.43
2019-04-29T16:26:39.617Z,24.02
2019-04-29T16:29:13.235Z,23.73
2019-04-29T16:31:40.362Z,23.48
2019-04-29T16:34:09.721Z,22.96
2019-04-29T16:36:43.624Z,22.83
2019-04-29T16:39:10.190Z,22.46
2019-04-29T16:42:01.329Z,22.12
2019-04-29T16:47:07.446Z,21.94
2019-04-29T16:49:33.065Z,22.01
2019-04-29T16:52:02.422Z,21.90
2019-04-29T16:54:32.240Z,21.52
2019-04-29T16:57:01.677Z,21.66
2019-04-29T16:59:31.014Z,21.55
2019-04-29T17:02:00.388Z,21.46
2019-04-29T17:04:29.794Z,21.21
2019-04-29T17:07:12.155Z,20.91
2019-04-29T17:09:47.873Z,20.56
2019-04-29T17:12:17.304Z,20.39
2019-04-29T17:15:03.037Z,20.27
2019-04-29T17:17:28.630Z,20.01
2019-04-29T17:19:52.596Z,19.77
2019-04-29T17:22:26.002Z,19.72
2019-04-29T17:24:53.212Z,19.83
2019-04-29T17:27:44.495Z,19.67
2019-04-29T17:30:48.988Z,19.71
2019-04-29T17:33:34.303Z,19.53
2019-04-29T17:35:15.895Z,22.18
2019-04-29T17:36:04.342Z,19.49
2019-04-29T17:38:33.775Z,19.43
2019-04-29T17:41:03.155Z,19.49
2019-04-29T17:43:43.215Z,19.39
2019-04-29T17:46:26.630Z,19.27
2019-04-29T17:49:03.593Z,19.33
2019-04-29T17:51:34.040Z,19.33
2019-04-29T17:54:05.436Z,19.34
2019-04-29T17:57:10.193Z,19.20
2019-04-29T17:59:40.725Z,19.16
2019-04-29T18:02:35.273Z,19.09
2019-04-29T18:05:34.345Z,19.27
2019-04-29T18:08:17.470Z,19.16
2019-04-29T18:10:50.267Z,18.93
2019-04-29T18:13:24.016Z,18.84
2019-04-29T18:16:00.975Z,18.95
2019-04-29T18:18:29.068Z,18.93
2019-04-29T18:21:15.953Z,18.68
2019-04-29T18:24:15.213Z,18.89
2019-04-29T18:26:51.397Z,19.02
2019-04-29T18:29:20.951Z,18.94
2019-04-29T18:31:50.317Z,18.88
2019-04-29T18:34:19.772Z,18.66
2019-04-29T18:36:49.158Z,18.45
2019-04-29T18:39:26.896Z,18.25
2019-04-29T18:41:54.751Z,18.17
2019-04-29T18:44:25.778Z,17.99
2019-04-29T18:46:57.239Z,17.87
2019-04-29T18:49:26.352Z,17.89
2019-04-29T18:51:57.871Z,17.87
2019-04-29T18:54:27.065Z,17.80
2019-04-29T18:56:56.530Z,17.84
2019-04-29T18:59:33.405Z,17.82
2019-04-29T19:02:01.015Z,17.69
2019-04-29T19:04:53.446Z,17.62
2019-04-29T19:07:21.288Z,17.48
2019-04-29T19:09:50.634Z,17.65
2019-04-29T19:12:20.080Z,17.61
2019-04-29T19:14:49.462Z,17.67
2019-04-29T19:17:21.581Z,17.48
2019-04-29T19:19:49.893Z,17.53
2019-04-29T19:22:19.243Z,17.44
2019-04-29T19:24:48.623Z,17.36
2019-04-29T19:27:18.233Z,17.26
2019-04-29T19:29:47.693Z,17.11
2019-04-29T19:32:18.924Z,17.06
2019-04-29T19:34:52.657Z,17.02
2019-04-29T19:37:19.277Z,17.06
2019-04-29T19:39:52.451Z,17.07
2019-04-29T19:42:29.026Z,16.98
2019-04-29T19:44:50.915Z,16.90
2019-04-29T19:47:20.684Z,16.79
2019-04-29T19:49:50.053Z,16.86
2019-04-29T19:52:30.319Z,16.90
2019-04-29T19:54:50.596Z,16.95
2019-04-29T19:57:19.955Z,16.93
2019-04-29T19:59:51.614Z,16.60
2019-04-29T20:02:21.326Z,16.69
2019-04-29T20:04:59.692Z,16.70
2019-04-29T20:07:28.996Z,16.66
2019-04-29T20:10:04.038Z,16.70
2019-04-29T20:12:30.014Z,16.74
2019-04-29T20:15:02.289Z,16.84
2019-04-29T20:17:50.119Z,16.90
2019-04-29T20:20:35.013Z,16.86
2019-04-29T20:23:02.654Z,16.76
2019-04-29T20:25:37.928Z,16.80
2019-04-29T20:28:06.644Z,16.70
2019-04-29T20:30:34.799Z,16.73
2019-04-29T20:33:11.323Z,16.67
2019-04-29T20:35:35.807Z,16.55
2019-04-29T20:38:05.828Z,16.42
2019-04-29T20:40:41.284Z,16.44
2019-04-29T20:43:08.276Z,16.33
2019-04-29T20:45:37.702Z,16.35
2019-04-29T20:48:11.125Z,16.14
2019-04-29T20:50:40.668Z,16.22
2019-04-29T20:53:15.642Z,16.29
2019-04-29T20:55:46.165Z,16.15
2019-04-29T20:58:15.848Z,16.00
2019-04-29T21:00:46.618Z,15.74
2019-04-29T21:03:27.361Z,15.75
2019-04-29T21:05:50.261Z,15.64
2019-04-29T21:08:19.216Z,15.46
2019-04-29T21:10:50.074Z,15.43
2019-04-29T21:13:36.940Z,15.25
2019-04-29T21:16:29.063Z,15.26
2019-04-29T21:19:00.721Z,15.24
2019-04-29T21:21:30.133Z,15.24
2019-04-29T21:23:59.511Z,15.25
2019-04-29T21:26:28.888Z,15.19
2019-04-29T21:28:58.294Z,15.27
2019-04-29T21:31:27.667Z,15.24
2019-04-29T21:33:58.919Z,15.16
2019-04-29T21:36:36.752Z,15.19
2019-04-29T21:39:25.183Z,15.17
2019-04-29T21:42:35.390Z,15.11
2019-04-29T21:45:08.321Z,15.11
2019-04-29T21:47:44.346Z,15.06
2019-04-29T21:50:06.201Z,15.06
2019-04-29T21:52:35.585Z,15.07
2019-04-29T21:55:05.277Z,15.00
2019-04-29T21:57:34.752Z,15.00
2019-04-29T22:00:05.715Z,15.02
2019-04-29T22:02:35.833Z,14.99
2019-04-29T22:05:09.492Z,14.98
2019-04-29T22:07:39.722Z,14.99
2019-04-29T22:10:09.911Z,14.94
2019-04-29T22:12:39.341Z,14.91
2019-04-29T22:15:08.803Z,14.89
2019-04-29T22:17:38.226Z,14.90
2019-04-29T22:20:10.118Z,14.93
2019-04-29T22:22:39.482Z,14.95
2019-04-29T22:25:09.924Z,14.97
2019-04-29T22:27:41.191Z,14.97
2019-04-29T22:30:16.899Z,15.00
2019-04-29T22:32:46.922Z,14.97
2019-04-29T22:35:16.368Z,14.92
2019-04-29T22:37:45.595Z,14.94
2019-04-29T22:40:17.252Z,14.94
2019-04-29T22:43:04.669Z,14.84
2019-04-29T22:45:29.535Z,14.83
2019-04-29T22:48:12.036Z,14.75
2019-04-29T22:50:29.363Z,14.70
2019-04-29T22:53:01.210Z,14.64
2019-04-29T22:55:30.865Z,14.58
2019-04-29T22:58:05.942Z,14.53
2019-04-29T23:00:33.023Z,14.56
2019-04-29T23:03:03.569Z,14.48
2019-04-29T23:05:33.089Z,14.45
2019-04-29T23:08:02.439Z,14.51
2019-04-29T23:10:31.852Z,14.48
2019-04-29T23:13:01.233Z,14.46
2019-04-29T23:15:30.573Z,14.49
2019-04-29T23:17:59.935Z,14.44
2019-04-29T23:20:46.789Z,14.39
2019-04-29T23:23:21.535Z,14.37
2019-04-29T23:25:52.629Z,14.32
2019-04-29T23:28:22.466Z,14.29
2019-04-29T23:30:53.495Z,14.29
2019-04-29T23:33:24.081Z,14.25
2019-04-29T23:35:56.078Z,14.26
2019-04-29T23:38:25.761Z,14.23
2019-04-29T23:40:56.447Z,14.26
2019-04-29T23:43:28.638Z,14.25
2019-04-29T23:46:00.533Z,14.26
2019-04-29T23:48:38.626Z,14.25
2019-04-29T23:51:00.518Z,14.25
2019-04-29T23:53:29.885Z,14.23
2019-04-29T23:56:00.098Z,14.26
2019-04-29T23:58:38.577Z,14.27
